Lucas, IA (50151)

6:31 PM CDT on September 30, 2014 (GMT -0500)
House in Medora | Change Station
CLOSE
Current Station
Personal Weather Station
Location: New Virginia, IA
Elevation: 1033 ft
Nearby Weather Stations

Elev 1033 ft 41.18 °N, 93.59 °W | Updated 2 seconds ago

Partly Cloudy
Partly Cloudy
67.3 °F
Feels Like 67.3 °F
N
8.9
Wind Variable Wind from ESE
Gusts 9.0 mph

Today
High -- | Low -- °F
--% Chance of Precip.
Yesterday
High -- | Low -- °F
Precip. -- in
7:09 AM 6:57 PM
Waxing Crescent, 41% visible
Pressure 29.83 in
Visibility 10.0 miles
Clouds Scattered Clouds 8500 ft
Dew Point 61 °F
Humidity 79%
Rainfall 0.00 in
Snow Depth Not available.
UV 0.0 out of 12
Pollen 4.90 out of 12
Air Quality Not available.
Flu Activity Not available.
METAR KI75 302315Z AUTO 09008KT 10SM SCT085 21/16 A2983 RMK AO2 T02070163

More Conditions Fewer Conditions

Pressure 29.83 in
Visibility 10.0 miles
Clouds Scattered Clouds 8500 ft
Dew Point 61 °F
Humidity 79%
Rainfall 0.00 in
Snow Depth Not available.
UV 0.0 out of 12
Pollen 4.90 out of 12
Air Quality Not available.
Flu Activity Not available.
METAR KI75 302315Z AUTO 09008KT 10SM SCT085 21/16 A2983 RMK AO2 T02070163

More Conditions Fewer Conditions

10-Day Weather Forecast

Almanac

Astronomy

Sep. 30, 2014 Rise Set
Actual Time 7:09 AM CDT 6:57 PM CDT
Civil Twilight 6:42 AM CDT 7:25 PM CDT
Nautical Twilight 6:10 AM CDT 7:57 PM CDT
Astronomical Twilight 5:37 AM CDT 8:29 PM CDT
Moon 1:21 PM CDT 11:26 PM CDT
Length of Visible Light 12h 42m
Length of Day
11h 47m
Tomorrow will be 2m 43s shorter.
Waxing Crescent, 41% of the Moon is Illuminated
Today
Waxing Crescent
Oct 1
First Quarter
Oct 8
Full
Oct 15
Last Quarter
Oct 23
New

Today's Extremes

State Highs State Lows

Community

WunderPhotos

Upload Photos

1,757,768 photos uploaded!

Nearby

Snow Depth

Station Depth Elevation
No new snow has been reported.

Earthquake Activity

City Distance Mag. Time & Date
No recent earthquake activity has been reported nearby.
Minimum magnitude displayed is 2.5.

Coastal Water Temperatures

Place Temperature
No Stations Reporting

Nearby Weather Stations